Ft Devens, Massachusetts
Current Conditions -  °F | °C
As of 2:52 AM on Thursday 29 Jan 2015 (Local Time) from KFIT Reporting Station
Clear Clear  
Wind Chill: -7°   Ceiling: Unl
Heat Index: -7°   Visibility: 10mi
Dew Point: -10°   Wind: 3mph
Humidity: 87%   Direction: 310°NW
Pressure: 30.26"   Gusts: NA
Location:  42.5336°N, 71.6215°W
Report Text: KFIT 290752Z AUTO 31003KT 10SM CLR M22/M23 A3026 RMK AO2 SLP256 I1000 T12171233
Loading
Personal Weather Stations






























Interactive Weather Map New forecast layout! Learn more

10-Day Weather Forecast

Advertisements
Track Severe Weather on mobile